Time;durP1;ratioP1;P1;durP2;ratioP2;P2;SDS_P1;SDS_P2;PMS_P1;PMS_P2;Temp;Humidity;BMP_temperature;BMP_pressure;BME280_temperature;BME280_humidity;BME280_pressure;Samples;Min_cycle;Max_cycle;Signal;HPM_P1;HPM_P2
2022/03/18 00:02:15;;;;;;;;;;;;;;;;;;5069507;28;19951;-67
2022/03/18 00:04:41;;;;;;;;;;;;;;;;;;4719883;28;9999829;-67
2022/03/18 00:07:08;;;;;;;;;;;;;;;;;;5061031;28;20392;-67
2022/03/18 00:09:34;;;;;;;;;;;;;;;;;;5055111;28;20239;-68
2022/03/18 00:12:00;;;;;;;;;;;;;;;;;;5069506;28;20125;-68
2022/03/18 00:14:26;;;;;;;;;;;;;;;;;;5070100;28;20574;-68
2022/03/18 00:16:52;;;;;;;;;;;;;;;;;;5073849;22;20373;-68
2022/03/18 00:19:18;;;;;;;;;;;;;;;;;;5050775;28;19925;-68
2022/03/18 00:21:45;;;;;;;;;;;;;;;;;;5052977;28;19924;-69
2022/03/18 00:24:11;;;;;;;;;;;;;;;;;;5049800;28;20404;-63
2022/03/18 00:26:37;;;;;;;;;;;;;;;;;;5050235;28;19925;-63
2022/03/18 00:29:03;;;;;;;;;;;;;;;;;;5051829;28;19950;-62
2022/03/18 00:31:29;;;;;;;;;;;;;;;;;;5053981;28;19925;-62
2022/03/18 00:33:55;;;;;;;;;;;;;;;;;;5053792;28;20366;-64
2022/03/18 00:36:21;;;;;;;;;;;;;;;;;;5049965;28;19964;-64
2022/03/18 00:38:48;;;;;;;;;;;;;;;;;;5047820;28;19932;-66
2022/03/18 00:41:14;;;;;;;;;;;;;;;;;;5050785;28;20103;-65
2022/03/18 00:43:40;;;;;;;;;;;;;;;;;;5042928;28;20011;-65
2022/03/18 00:46:06;;;;;;;;;;;;;;;;;;5043644;28;20001;-65
2022/03/18 00:54:00;;;;;;;;;;;;;;;;;;5053204;28;20058;-65
2022/03/18 00:56:26;;;;;;;;;;;;;;;;;;5047337;28;19929;-66
2022/03/18 00:58:52;;;;;;;;;;;;;;;;;;5053139;28;19925;-67
2022/03/18 01:01:18;;;;;;;;;;;;;;;;;;5052841;28;19963;-67
2022/03/18 01:03:44;;;;;;;;;;;;;;;;;;5052302;28;20306;-67
2022/03/18 01:06:11;;;;;;;;;;;;;;;;;;5051613;28;19958;-66
2022/03/18 01:08:37;;;;;;;;;;;;;;;;;;5051165;28;19939;-66
2022/03/18 01:11:03;;;;;;;;;;;;;;;;;;5042870;28;19924;-66
2022/03/18 01:13:29;;;;;;;;;;;;;;;;;;5052288;28;19931;-66
2022/03/18 01:15:55;;;;;;;;;;;;;;;;;;5050922;28;19959;-66
2022/03/18 01:18:21;;;;;;;;;;;;;;;;;;5039984;28;19963;-67
2022/03/18 01:20:47;;;;;;;;;;;;;;;;;;5041044;28;19932;-67
2022/03/18 01:23:14;;;;;;;;;;;;;;;;;;5032819;28;19943;-65
2022/03/18 01:25:40;;;;;;;;;;;;;;;;;;5034997;28;20306;-66
2022/03/18 01:28:06;;;;;;;;;;;;;;;;;;5048198;28;20136;-67
2022/03/18 01:30:32;;;;;;;;;;;;;;;;;;5053056;28;19943;-63
2022/03/18 01:33:00;;;;;;;;;;;;;;;;;;5052861;28;19928;-65
2022/03/18 01:35:26;;;;;;;;;;;;;;;;;;5052934;28;19972;-65
2022/03/18 01:37:52;;;;;;;;;;;;;;;;;;5050046;28;20381;-66
2022/03/18 01:40:18;;;;;;;;;;;;;;;;;;5033670;28;19948;-66
2022/03/18 01:42:45;;;;;;;;;;;;;;;;;;5048914;28;20027;-66
2022/03/18 01:45:11;;;;;;;;;;;;;;;;;;5037416;28;19925;-66
2022/03/18 01:47:42;;;;;;;;;;;;;;;;;;5047414;28;19933;-67
2022/03/18 01:50:08;;;;;;;;;;;;;;;;;;5052215;28;20305;-63
2022/03/18 01:52:34;;;;;;;;;;;;;;;;;;5052101;28;20004;-65
2022/03/18 01:55:02;;;;;;;;;;;;;;;;;;5052079;28;19932;-65
2022/03/18 01:57:28;;;;;;;;;;;;;;;;;;5051415;28;20031;-64
2022/03/18 01:59:54;;;;;;;;;;;;;;;;;;5044498;28;19925;-64
2022/03/18 02:02:20;;;;;;;;;;;;;;;;;;5032192;28;19935;-64
2022/03/18 02:04:47;;;;;;;;;;;;;;;;;;5030794;28;19995;-64
2022/03/18 02:07:13;;;;;;;;;;;;;;;;;;5037319;28;19970;-65
2022/03/18 02:09:39;;;;;;;;;;;;;;;;;;5047889;28;19959;-65
2022/03/18 02:12:05;;;;;;;;;;;;;;;;;;5050421;28;19925;-65
2022/03/18 02:14:31;;;;;;;;;;;;;;;;;;5045531;28;19979;-64
2022/03/18 02:16:57;;;;;;;;;;;;;;;;;;5049923;28;19975;-71
2022/03/18 02:19:23;;;;;;;;;;;;;;;;;;5045279;28;19938;-73
2022/03/18 02:21:49;;;;;;;;;;;;;;;;;;5035768;28;19986;-70
2022/03/18 02:24:16;;;;;;;;;;;;;;;;;;5029557;28;20415;-65
2022/03/18 02:26:42;;;;;;;;;;;;;;;;;;5032352;28;20004;-64
2022/03/18 02:29:08;;;;;;;;;;;;;;;;;;5042166;28;19960;-64
2022/03/18 02:31:34;;;;;;;;;;;;;;;;;;5050587;28;20009;-65
2022/03/18 02:34:00;;;;;;;;;;;;;;;;;;5050461;28;19932;-64
2022/03/18 02:36:26;;;;;;;;;;;;;;;;;;5043226;28;19969;-64
2022/03/18 02:38:53;;;;;;;;;;;;;;;;;;5043521;28;19957;-64
2022/03/18 02:41:19;;;;;;;;;;;;;;;;;;5048269;28;20106;-64
2022/03/18 02:43:46;;;;;;;;;;;;;;;;;;5042399;28;19974;-64
2022/03/18 02:46:12;;;;;;;;;;;;;;;;;;5046980;28;19979;-64
2022/03/18 02:48:38;;;;;;;;;;;;;;;;;;5043646;28;19924;-64
2022/03/18 02:51:04;;;;;;;;;;;;;;;;;;5050656;28;19925;-62
2022/03/18 02:53:30;;;;;;;;;;;;;;;;;;5048379;28;19931;-63
2022/03/18 02:55:56;;;;;;;;;;;;;;;;;;5040939;28;19929;-62
2022/03/18 02:58:23;;;;;;;;;;;;;;;;;;5046243;28;19932;-62
2022/03/18 03:00:49;;;;;;;;;;;;;;;;;;5035399;28;19932;-61
2022/03/18 03:03:15;;;;;;;;;;;;;;;;;;5034409;28;20385;-62
2022/03/18 03:08:25;;;;;;;;;;;;;;;;;;5038191;28;20046;-63
2022/03/18 03:10:51;;;;;;;;;;;;;;;;;;5050177;28;19952;-66
2022/03/18 03:13:18;;;;;;;;;;;;;;;;;;5049015;28;19959;-65
2022/03/18 03:15:44;;;;;;;;;;;;;;;;;;5050064;28;19932;-66
2022/03/18 03:18:10;;;;;;;;;;;;;;;;;;5046879;28;19957;-62
2022/03/18 03:20:36;;;;;;;;;;;;;;;;;;5041597;28;19937;-62
2022/03/18 03:23:02;;;;;;;;;;;;;;;;;;5047736;28;19958;-61
2022/03/18 03:25:28;;;;;;;;;;;;;;;;;;5045691;28;19960;-61
2022/03/18 03:27:54;;;;;;;;;;;;;;;;;;5038213;28;19946;-63
2022/03/18 03:30:20;;;;;;;;;;;;;;;;;;5049991;28;19973;-63
2022/03/18 03:32:47;;;;;;;;;;;;;;;;;;5048451;28;19948;-63
2022/03/18 03:35:15;;;;;;;;;;;;;;;;;;5041885;28;20431;-65
2022/03/18 03:37:41;;;;;;;;;;;;;;;;;;5053759;28;19952;-63
2022/03/18 03:40:07;;;;;;;;;;;;;;;;;;5053763;28;19935;-63
2022/03/18 03:42:34;;;;;;;;;;;;;;;;;;5053154;28;19924;-64
2022/03/18 03:45:00;;;;;;;;;;;;;;;;;;5051154;28;19955;-65
2022/03/18 03:47:26;;;;;;;;;;;;;;;;;;5053621;28;19936;-64
2022/03/18 03:49:52;;;;;;;;;;;;;;;;;;5045454;28;19932;-65
2022/03/18 03:52:18;;;;;;;;;;;;;;;;;;5052194;28;19935;-60
2022/03/18 03:54:44;;;;;;;;;;;;;;;;;;5050991;28;20004;-59
2022/03/18 03:57:10;;;;;;;;;;;;;;;;;;5046429;28;19935;-59
2022/03/18 03:59:36;;;;;;;;;;;;;;;;;;5048440;28;19960;-64
2022/03/18 04:02:03;;;;;;;;;;;;;;;;;;5034013;28;19958;-63
2022/03/18 04:04:29;;;;;;;;;;;;;;;;;;5047677;28;19973;-63
2022/03/18 04:06:55;;;;;;;;;;;;;;;;;;5053471;28;20406;-64
2022/03/18 04:09:22;;;;;;;;;;;;;;;;;;5052991;28;19975;-65
2022/03/18 04:11:48;;;;;;;;;;;;;;;;;;5053712;28;19975;-64
2022/03/18 04:14:14;;;;;;;;;;;;;;;;;;5050554;28;20059;-64
2022/03/18 04:16:40;;;;;;;;;;;;;;;;;;5044925;28;19946;-64
2022/03/18 04:19:06;;;;;;;;;;;;;;;;;;5041109;28;19967;-65
2022/03/18 04:21:32;;;;;;;;;;;;;;;;;;5045881;28;19967;-64
2022/03/18 04:23:58;;;;;;;;;;;;;;;;;;5051577;28;19980;-67
2022/03/18 04:26:25;;;;;;;;;;;;;;;;;;5041505;28;19965;-67
2022/03/18 04:28:51;;;;;;;;;;;;;;;;;;5043688;28;19961;-65
2022/03/18 04:31:17;;;;;;;;;;;;;;;;;;5042662;28;19960;-66
2022/03/18 04:33:43;;;;;;;;;;;;;;;;;;5039605;28;19981;-64
2022/03/18 04:36:09;;;;;;;;;;;;;;;;;;5050698;28;19966;-67
2022/03/18 04:38:35;;;;;;;;;;;;;;;;;;5052384;28;19989;-68
2022/03/18 04:41:01;;;;;;;;;;;;;;;;;;5053117;28;19956;-68
2022/03/18 04:43:28;;;;;;;;;;;;;;;;;;5051881;28;19960;-68
2022/03/18 04:45:54;;;;;;;;;;;;;;;;;;5048086;28;20427;-66
2022/03/18 04:48:20;;;;;;;;;;;;;;;;;;5048016;28;19953;-65
2022/03/18 04:50:46;;;;;;;;;;;;;;;;;;5047392;28;19954;-66
2022/03/18 04:53:12;;;;;;;;;;;;;;;;;;5050892;28;19942;-65
2022/03/18 04:55:38;;;;;;;;;;;;;;;;;;5049382;28;19957;-67
2022/03/18 04:58:04;;;;;;;;;;;;;;;;;;5034418;28;20336;-66
2022/03/18 05:00:31;;;;;;;;;;;;;;;;;;5052622;28;20314;-63
2022/03/18 05:02:57;;;;;;;;;;;;;;;;;;5051879;28;20406;-63
2022/03/18 05:05:23;;;;;;;;;;;;;;;;;;5044491;28;19970;-63
2022/03/18 05:07:49;;;;;;;;;;;;;;;;;;5039995;28;19980;-62
2022/03/18 05:10:16;;;;;;;;;;;;;;;;;;5043476;28;19964;-63
2022/03/18 05:12:42;;;;;;;;;;;;;;;;;;5033452;28;19953;-63
2022/03/18 05:15:08;;;;;;;;;;;;;;;;;;5048993;28;19955;-63
2022/03/18 05:17:34;;;;;;;;;;;;;;;;;;5051169;28;19986;-74
2022/03/18 05:20:01;;;;;;;;;;;;;;;;;;5046826;28;19931;-67
2022/03/18 05:22:27;;;;;;;;;;;;;;;;;;5052968;28;19968;-66
2022/03/18 05:24:53;;;;;;;;;;;;;;;;;;5051477;28;19960;-67
2022/03/18 05:27:19;;;;;;;;;;;;;;;;;;5044231;28;19971;-68
2022/03/18 05:29:45;;;;;;;;;;;;;;;;;;5051296;28;19938;-68
2022/03/18 05:32:12;;;;;;;;;;;;;;;;;;5042135;28;19929;-68
2022/03/18 05:34:38;;;;;;;;;;;;;;;;;;5039249;28;19932;-68
2022/03/18 05:37:05;;;;;;;;;;;;;;;;;;5049484;28;20518;-66
2022/03/18 05:39:31;;;;;;;;;;;;;;;;;;5031924;28;19925;-68
2022/03/18 05:41:57;;;;;;;;;;;;;;;;;;5032083;28;20002;-67
2022/03/18 05:44:24;;;;;;;;;;;;;;;;;;5036763;28;19959;-67
2022/03/18 05:46:51;;;;;;;;;;;;;;;;;;5049559;28;19931;-68
2022/03/18 05:49:18;;;;;;;;;;;;;;;;;;5042863;28;20061;-66
2022/03/18 05:51:44;;;;;;;;;;;;;;;;;;5051457;28;19925;-70
2022/03/18 05:54:10;;;;;;;;;;;;;;;;;;5042449;28;19968;-66
2022/03/18 05:56:55;;;;;;;;;;;;;;;;;;5046887;28;19924;-71
2022/03/18 05:59:21;;;;;;;;;;;;;;;;;;5050524;28;19965;-72
2022/03/18 06:01:47;;;;;;;;;;;;;;;;;;5042989;28;19955;-70
2022/03/18 06:04:15;;;;;;;;;;;;;;;;;;5050400;28;20115;-71
2022/03/18 06:06:41;;;;;;;;;;;;;;;;;;5050910;28;19965;-71
2022/03/18 06:11:52;;;;;;;;;;;;;;;;;;5036788;28;20350;-71
2022/03/18 06:14:18;;;;;;;;;;;;;;;;;;5048758;28;20394;-71
2022/03/18 06:16:44;;;;;;;;;;;;;;;;;;5042092;28;20361;-71
2022/03/18 06:19:11;;;;;;;;;;;;;;;;;;5032800;28;19951;-71
2022/03/18 06:21:37;;;;;;;;;;;;;;;;;;5048383;28;20381;-72
2022/03/18 06:24:03;;;;;;;;;;;;;;;;;;5035288;28;19936;-71
2022/03/18 06:26:31;;;;;;;;;;;;;;;;;;5043077;28;19933;-74
2022/03/18 06:28:57;;;;;;;;;;;;;;;;;;5046341;28;20011;-71
2022/03/18 06:31:24;;;;;;;;;;;;;;;;;;5045890;28;19929;-73
2022/03/18 06:33:50;;;;;;;;;;;;;;;;;;5045016;28;20022;-73
2022/03/18 06:36:16;;;;;;;;;;;;;;;;;;5034645;28;19929;-73
2022/03/18 06:38:42;;;;;;;;;;;;;;;;;;5037171;28;19983;-72
2022/03/18 06:41:09;;;;;;;;;;;;;;;;;;5039067;28;20065;-73
2022/03/18 06:43:35;;;;;;;;;;;;;;;;;;5030975;28;19985;-72
2022/03/18 06:46:02;;;;;;;;;;;;;;;;;;5041038;28;19979;-73
2022/03/18 06:48:28;;;;;;;;;;;;;;;;;;5035212;28;20394;-73
2022/03/18 06:50:54;;;;;;;;;;;;;;;;;;5043624;28;19935;-72
2022/03/18 06:53:20;;;;;;;;;;;;;;;;;;5046900;28;19924;-73
2022/03/18 06:55:46;;;;;;;;;;;;;;;;;;5044700;28;19935;-72
2022/03/18 06:58:12;;;;;;;;;;;;;;;;;;5045800;28;19929;-72
2022/03/18 07:00:39;;;;;;;;;;;;;;;;;;5046646;28;19932;-72
2022/03/18 07:03:05;;;;;;;;;;;;;;;;;;5034759;28;19929;-71
2022/03/18 07:05:32;;;;;;;;;;;;;;;;;;5036423;28;19932;-71
2022/03/18 07:07:58;;;;;;;;;;;;;;;;;;5044587;28;19963;-72
2022/03/18 07:10:24;;;;;;;;;;;;;;;;;;5046590;28;20257;-71
2022/03/18 07:12:50;;;;;;;;;;;;;;;;;;5048103;28;19978;-71
2022/03/18 07:15:16;;;;;;;;;;;;;;;;;;5046741;28;20058;-71
2022/03/18 07:18:01;;;;;;;;;;;;;;;;;;5043540;28;19929;-73
2022/03/18 07:20:28;;;;;;;;;;;;;;;;;;5028499;28;19944;-71
2022/03/18 07:22:54;;;;;;;;;;;;;;;;;;5047360;28;19975;-70
2022/03/18 07:25:20;;;;;;;;;;;;;;;;;;5047296;28;19924;-72
2022/03/18 07:27:46;;;;;;;;;;;;;;;;;;5040416;28;20362;-71
2022/03/18 07:30:12;;;;;;;;;;;;;;;;;;5034924;28;19929;-71
2022/03/18 07:32:38;;;;;;;;;;;;;;;;;;5034311;28;19932;-71
2022/03/18 07:35:05;;;;;;;;;;;;;;;;;;5032710;28;19947;-71
2022/03/18 07:37:31;;;;;;;;;;;;;;;;;;5037670;28;19928;-71
2022/03/18 07:39:57;;;;;;;;;;;;;;;;;;5048768;28;19941;-71
2022/03/18 07:42:23;;;;;;;;;;;;;;;;;;5035386;28;19935;-71
2022/03/18 07:44:49;;;;;;;;;;;;;;;;;;5037465;28;20426;-71
2022/03/18 07:47:15;;;;;;;;;;;;;;;;;;5043438;28;19928;-71
2022/03/18 07:49:42;;;;;;;;;;;;;;;;;;5046532;28;20136;-71
2022/03/18 07:52:08;;;;;;;;;;;;;;;;;;5033814;28;20421;-71
2022/03/18 07:54:34;;;;;;;;;;;;;;;;;;5046929;28;19940;-71
2022/03/18 07:57:00;;;;;;;;;;;;;;;;;;5039267;28;19959;-70
2022/03/18 07:59:26;;;;;;;;;;;;;;;;;;5030263;28;20430;-71
2022/03/18 08:01:52;;;;;;;;;;;;;;;;;;5042340;28;20360;-71
2022/03/18 08:04:18;;;;;;;;;;;;;;;;;;5036827;28;19929;-72
2022/03/18 08:06:45;;;;;;;;;;;;;;;;;;5045197;28;19929;-71
2022/03/18 08:09:11;;;;;;;;;;;;;;;;;;5039515;28;19955;-72
2022/03/18 08:11:37;;;;;;;;;;;;;;;;;;5034944;28;19929;-72
2022/03/18 08:14:03;;;;;;;;;;;;;;;;;;5047080;28;19928;-71
2022/03/18 08:16:29;;;;;;;;;;;;;;;;;;5046499;28;19925;-72
2022/03/18 08:18:57;;;;;;;;;;;;;;;;;;5033903;28;20271;-74
2022/03/18 08:21:23;;;;;;;;;;;;;;;;;;5040873;28;19925;-72
2022/03/18 08:23:49;;;;;;;;;;;;;;;;;;5043529;28;19939;-71
2022/03/18 08:26:15;;;;;;;;;;;;;;;;;;5051014;28;19931;-73
2022/03/18 08:28:43;;;;;;;;;;;;;;;;;;5041668;28;19924;-72
2022/03/18 08:31:09;;;;;;;;;;;;;;;;;;5042218;28;19935;-71
2022/03/18 08:33:35;;;;;;;;;;;;;;;;;;5049354;28;19933;-72
2022/03/18 08:36:02;;;;;;;;;;;;;;;;;;5042562;28;20019;-72
2022/03/18 08:38:28;;;;;;;;;;;;;;;;;;5042549;28;19966;-70
2022/03/18 08:40:54;;;;;;;;;;;;;;;;;;5042854;28;19932;-72
2022/03/18 08:43:20;;;;;;;;;;;;;;;;;;5045137;28;19935;-71
2022/03/18 08:45:46;;;;;;;;;;;;;;;;;;5039226;28;20320;-72
2022/03/18 08:48:12;;;;;;;;;;;;;;;;;;5042798;28;19968;-73
2022/03/18 08:50:38;;;;;;;;;;;;;;;;;;5041241;28;20386;-72
2022/03/18 08:53:09;;;;;;;;;;;;;;;;;;5048761;28;19925;-72
2022/03/18 08:55:35;;;;;;;;;;;;;;;;;;5046121;28;19929;-72
2022/03/18 08:58:02;;;;;;;;;;;;;;;;;;5049077;28;19929;-72
2022/03/18 09:00:29;;;;;;;;;;;;;;;;;;5051767;28;19935;-72
2022/03/18 09:02:55;;;;;;;;;;;;;;;;;;5045122;28;20612;-71
2022/03/18 09:05:21;;;;;;;;;;;;;;;;;;5055085;28;20282;-72
2022/03/18 09:07:48;;;;;;;;;;;;;;;;;;5054381;28;19933;-72
2022/03/18 09:10:14;;;;;;;;;;;;;;;;;;5043710;28;19933;-73
2022/03/18 09:12:40;;;;;;;;;;;;;;;;;;5052732;28;20237;-73
2022/03/18 09:15:06;;;;;;;;;;;;;;;;;;5045941;28;19928;-72
2022/03/18 09:17:32;;;;;;;;;;;;;;;;;;5049141;28;19990;-71
2022/03/18 09:19:58;;;;;;;;;;;;;;;;;;5046858;28;19928;-71
2022/03/18 09:22:25;;;;;;;;;;;;;;;;;;5040505;28;19925;-72
2022/03/18 09:24:51;;;;;;;;;;;;;;;;;;5054364;28;19932;-72
2022/03/18 09:27:17;;;;;;;;;;;;;;;;;;5043031;28;19928;-72
2022/03/18 09:29:43;;;;;;;;;;;;;;;;;;5054873;28;19929;-71
2022/03/18 09:32:09;;;;;;;;;;;;;;;;;;5050026;28;19994;-72
2022/03/18 09:34:36;;;;;;;;;;;;;;;;;;5052627;28;19978;-71
2022/03/18 09:37:02;;;;;;;;;;;;;;;;;;5051456;28;20415;-71
2022/03/18 09:39:28;;;;;;;;;;;;;;;;;;5053005;28;20178;-72
2022/03/18 09:41:54;;;;;;;;;;;;;;;;;;5039404;28;19925;-71
2022/03/18 09:44:20;;;;;;;;;;;;;;;;;;5034443;28;20031;-72
2022/03/18 09:46:46;;;;;;;;;;;;;;;;;;5044929;28;20358;-72
2022/03/18 09:49:13;;;;;;;;;;;;;;;;;;5039433;28;19929;-72
2022/03/18 09:51:39;;;;;;;;;;;;;;;;;;5049175;28;19929;-72
2022/03/18 09:54:06;;;;;;;;;;;;;;;;;;5038914;28;19935;-72
2022/03/18 09:56:32;;;;;;;;;;;;;;;;;;5040906;28;20453;-72
2022/03/18 09:58:58;;;;;;;;;;;;;;;;;;5048358;28;20289;-71
2022/03/18 10:01:24;;;;;;;;;;;;;;;;;;5049002;28;19925;-72
2022/03/18 10:03:51;;;;;;;;;;;;;;;;;;5047921;28;19933;-71
2022/03/18 10:06:18;;;;;;;;;;;;;;;;;;5040605;28;19929;-72
2022/03/18 10:08:44;;;;;;;;;;;;;;;;;;5042738;28;19979;-72
2022/03/18 10:11:10;;;;;;;;;;;;;;;;;;5046197;28;19936;-72
2022/03/18 10:13:36;;;;;;;;;;;;;;;;;;5048371;28;19936;-72
2022/03/18 10:16:03;;;;;;;;;;;;;;;;;;5041108;28;19929;-71
2022/03/18 10:18:29;;;;;;;;;;;;;;;;;;5040534;28;20440;-72
2022/03/18 10:20:55;;;;;;;;;;;;;;;;;;5047787;28;20358;-72
2022/03/18 10:23:22;;;;;;;;;;;;;;;;;;5038481;28;20353;-73
2022/03/18 10:25:50;;;;;;;;;;;;;;;;;;5028179;28;20358;-73
2022/03/18 10:28:16;;;;;;;;;;;;;;;;;;5041002;28;20458;-73
2022/03/18 10:30:42;;;;;;;;;;;;;;;;;;5039039;28;19928;-74
2022/03/18 10:33:09;;;;;;;;;;;;;;;;;;5047182;28;20023;-73
2022/03/18 10:38:19;;;;;;;;;;;;;;;;;;5045678;28;19943;-73
2022/03/18 10:40:50;;;;;;;;;;;;;;;;;;5047034;28;19929;-72
2022/03/18 10:43:16;;;;;;;;;;;;;;;;;;5045446;28;19933;-73
2022/03/18 10:45:42;;;;;;;;;;;;;;;;;;5043850;28;19935;-72
2022/03/18 10:48:08;;;;;;;;;;;;;;;;;;5035570;28;20413;-72
2022/03/18 10:50:34;;;;;;;;;;;;;;;;;;5050228;28;19929;-73
2022/03/18 10:53:01;;;;;;;;;;;;;;;;;;5048918;28;20406;-72
2022/03/18 10:55:29;;;;;;;;;;;;;;;;;;5046344;28;19925;-74
2022/03/18 10:57:55;;;;;;;;;;;;;;;;;;5051695;28;19983;-72
2022/03/18 11:00:21;;;;;;;;;;;;;;;;;;5047755;28;19933;-72
2022/03/18 11:02:47;;;;;;;;;;;;;;;;;;5045148;28;20374;-71
2022/03/18 11:05:13;;;;;;;;;;;;;;;;;;5048435;28;19932;-72
2022/03/18 11:07:41;;;;;;;;;;;;;;;;;;5043892;28;19935;-72
2022/03/18 11:12:51;;;;;;;;;;;;;;;;;;5036893;28;20065;-72
2022/03/18 11:15:17;;;;;;;;;;;;;;;;;;5045493;28;19928;-71
2022/03/18 11:17:44;;;;;;;;;;;;;;;;;;5040355;28;19940;-71
2022/03/18 11:20:10;;;;;;;;;;;;;;;;;;5038734;28;19929;-71
2022/03/18 11:22:37;;;;;;;;;;;;;;;;;;5046683;28;19925;-71
2022/03/18 11:25:03;;;;;;;;;;;;;;;;;;5047288;28;19929;-72
2022/03/18 11:27:29;;;;;;;;;;;;;;;;;;5047084;28;20339;-72
2022/03/18 11:29:55;;;;;;;;;;;;;;;;;;5046382;28;19929;-71
2022/03/18 11:32:22;;;;;;;;;;;;;;;;;;5042207;28;19928;-72
2022/03/18 11:34:50;;;;;;;;;;;;;;;;;;5045643;28;19929;-70
2022/03/18 11:37:16;;;;;;;;;;;;;;;;;;5046774;28;19944;-71
2022/03/18 11:39:42;;;;;;;;;;;;;;;;;;5047154;28;19928;-71
2022/03/18 11:42:09;;;;;;;;;;;;;;;;;;5043403;28;20394;-71
2022/03/18 11:44:35;;;;;;;;;;;;;;;;;;5044942;28;19924;-71
2022/03/18 11:47:02;;;;;;;;;;;;;;;;;;5033935;28;20007;-70
2022/03/18 11:49:28;;;;;;;;;;;;;;;;;;5037480;28;19936;-69
2022/03/18 11:51:54;;;;;;;;;;;;;;;;;;5037854;28;19933;-69
2022/03/18 11:54:24;;;;;;;;;;;;;;;;;;5046338;28;19924;-69
2022/03/18 11:56:50;;;;;;;;;;;;;;;;;;5043582;28;19947;-70
2022/03/18 11:59:16;;;;;;;;;;;;;;;;;;5049567;28;19932;-70
2022/03/18 12:01:43;;;;;;;;;;;;;;;;;;5045534;28;19925;-70
2022/03/18 12:04:09;;;;;;;;;;;;;;;;;;5043125;28;19994;-69
2022/03/18 12:06:36;;;;;;;;;;;;;;;;;;5032520;28;19940;-72
2022/03/18 12:09:02;;;;;;;;;;;;;;;;;;5030657;28;19964;-70
2022/03/18 12:11:28;;;;;;;;;;;;;;;;;;5050237;28;19990;-69
2022/03/18 12:13:54;;;;;;;;;;;;;;;;;;5037840;28;19929;-70
2022/03/18 12:16:20;;;;;;;;;;;;;;;;;;5038655;28;19935;-69
2022/03/18 12:18:46;;;;;;;;;;;;;;;;;;5049801;28;19928;-69
2022/03/18 12:21:13;;;;;;;;;;;;;;;;;;5038838;28;19968;-70
2022/03/18 12:23:39;;;;;;;;;;;;;;;;;;5030556;28;20107;-70
2022/03/18 12:26:05;;;;;;;;;;;;;;;;;;5031005;28;19969;-70
2022/03/18 12:28:31;;;;;;;;;;;;;;;;;;5044224;28;19995;-70
2022/03/18 12:30:57;;;;;;;;;;;;;;;;;;5049659;28;20039;-69
2022/03/18 12:33:24;;;;;;;;;;;;;;;;;;5049788;28;20412;-70
2022/03/18 12:35:50;;;;;;;;;;;;;;;;;;5050350;28;19939;-69
2022/03/18 12:38:16;;;;;;;;;;;;;;;;;;5049705;28;19990;-69
2022/03/18 12:40:43;;;;;;;;;;;;;;;;;;5043776;28;20179;-70
2022/03/18 12:43:09;;;;;;;;;;;;;;;;;;5050072;28;20307;-70
2022/03/18 12:45:36;;;;;;;;;;;;;;;;;;5050227;28;19924;-70
2022/03/18 12:48:02;;;;;;;;;;;;;;;;;;5044605;28;19940;-70
2022/03/18 12:50:28;;;;;;;;;;;;;;;;;;5045038;28;20027;-69
2022/03/18 12:52:56;;;;;;;;;;;;;;;;;;5035718;28;19991;-70
2022/03/18 12:55:23;;;;;;;;;;;;;;;;;;5046730;28;19935;-70
2022/03/18 12:57:50;;;;;;;;;;;;;;;;;;5050176;28;19925;-70
2022/03/18 13:00:17;;;;;;;;;;;;;;;;;;5048543;28;19936;-70
2022/03/18 13:02:43;;;;;;;;;;;;;;;;;;5040494;28;19929;-70
2022/03/18 13:05:13;;;;;;;;;;;;;;;;;;5046782;28;19951;-70
2022/03/18 13:07:39;;;;;;;;;;;;;;;;;;5047330;28;20014;-71
2022/03/18 13:10:05;;;;;;;;;;;;;;;;;;5042823;28;20038;-70
2022/03/18 13:12:31;;;;;;;;;;;;;;;;;;5050009;28;20686;-69
2022/03/18 13:14:57;;;;;;;;;;;;;;;;;;5048682;28;19929;-70
2022/03/18 13:17:24;;;;;;;;;;;;;;;;;;5045937;28;19929;-69
2022/03/18 13:19:51;;;;;;;;;;;;;;;;;;5045012;28;19984;-70
2022/03/18 13:22:17;;;;;;;;;;;;;;;;;;5043151;28;20495;-69
2022/03/18 13:24:43;;;;;;;;;;;;;;;;;;5049407;28;19944;-70
2022/03/18 13:27:10;;;;;;;;;;;;;;;;;;5049973;28;19937;-70
2022/03/18 13:35:04;;;;;;;;;;;;;;;;;;5048327;28;19958;-70
2022/03/18 13:37:30;;;;;;;;;;;;;;;;;;5041853;28;19940;-69
2022/03/18 13:39:56;;;;;;;;;;;;;;;;;;5047946;28;20012;-69
2022/03/18 13:42:22;;;;;;;;;;;;;;;;;;5042228;28;19933;-69
2022/03/18 13:44:49;;;;;;;;;;;;;;;;;;5050009;28;19932;-69
2022/03/18 13:47:15;;;;;;;;;;;;;;;;;;5044505;28;19983;-70
2022/03/18 13:49:43;;;;;;;;;;;;;;;;;;5044115;28;19933;-68
2022/03/18 13:52:09;;;;;;;;;;;;;;;;;;5048639;28;19925;-68
2022/03/18 13:54:35;;;;;;;;;;;;;;;;;;5048419;28;20080;-69
2022/03/18 13:57:01;;;;;;;;;;;;;;;;;;5048688;28;19929;-68
2022/03/18 13:59:28;;;;;;;;;;;;;;;;;;5048395;28;19932;-69
2022/03/18 14:01:54;;;;;;;;;;;;;;;;;;5046334;28;19932;-70
2022/03/18 14:04:20;;;;;;;;;;;;;;;;;;5041794;28;19936;-70
2022/03/18 14:06:47;;;;;;;;;;;;;;;;;;5035126;28;19928;-69
2022/03/18 14:09:13;;;;;;;;;;;;;;;;;;5039163;28;19928;-69
2022/03/18 14:14:25;;;;;;;;;;;;;;;;;;5042698;28;19924;-71
2022/03/18 14:16:51;;;;;;;;;;;;;;;;;;5046362;28;19928;-69
2022/03/18 14:19:17;;;;;;;;;;;;;;;;;;5033500;28;20401;-68
2022/03/18 14:21:43;;;;;;;;;;;;;;;;;;5043552;28;20314;-70
2022/03/18 14:24:10;;;;;;;;;;;;;;;;;;5046094;28;19935;-70
2022/03/18 14:26:36;;;;;;;;;;;;;;;;;;5048539;28;19929;-69
2022/03/18 14:29:02;;;;;;;;;;;;;;;;;;5047362;28;20194;-70
2022/03/18 14:31:28;;;;;;;;;;;;;;;;;;5042970;28;20362;-70
2022/03/18 14:33:54;;;;;;;;;;;;;;;;;;5043015;28;20023;-68
2022/03/18 14:36:20;;;;;;;;;;;;;;;;;;5045986;28;19928;-68
2022/03/18 14:38:46;;;;;;;;;;;;;;;;;;5047163;28;19929;-68
2022/03/18 14:41:13;;;;;;;;;;;;;;;;;;5038126;28;19960;-68
2022/03/18 14:43:39;;;;;;;;;;;;;;;;;;5044987;28;19929;-68
2022/03/18 14:46:08;;;;;;;;;;;;;;;;;;5038552;28;20024;-69
2022/03/18 14:48:34;;;;;;;;;;;;;;;;;;5038365;28;19929;-68
2022/03/18 14:51:00;;;;;;;;;;;;;;;;;;5040089;28;19929;-68
2022/03/18 14:53:27;;;;;;;;;;;;;;;;;;5037828;28;19936;-67
2022/03/18 14:58:38;;;;;;;;;;;;;;;;;;5039451;28;20286;-68
2022/03/18 15:01:04;;;;;;;;;;;;;;;;;;5043741;28;19925;-67
2022/03/18 15:03:30;;;;;;;;;;;;;;;;;;5041528;28;19932;-68
2022/03/18 15:05:56;;;;;;;;;;;;;;;;;;5046159;28;19936;-67
2022/03/18 15:08:23;;;;;;;;;;;;;;;;;;5038733;28;19929;-67
2022/03/18 15:10:49;;;;;;;;;;;;;;;;;;5032671;28;19925;-67
2022/03/18 15:13:15;;;;;;;;;;;;;;;;;;5045735;28;20067;-69
2022/03/18 15:15:42;;;;;;;;;;;;;;;;;;5035187;28;20374;-68
2022/03/18 15:18:08;;;;;;;;;;;;;;;;;;5034089;28;19935;-67
2022/03/18 15:20:35;;;;;;;;;;;;;;;;;;5047078;28;20134;-67
2022/03/18 15:23:01;;;;;;;;;;;;;;;;;;5047084;28;20039;-68
2022/03/18 15:25:27;;;;;;;;;;;;;;;;;;5047506;28;19929;-68
2022/03/18 15:27:54;;;;;;;;;;;;;;;;;;5037881;28;19936;-68
2022/03/18 15:30:20;;;;;;;;;;;;;;;;;;5046379;28;20307;-68
2022/03/18 15:32:46;;;;;;;;;;;;;;;;;;5045308;28;19932;-68
2022/03/18 15:35:12;;;;;;;;;;;;;;;;;;5041066;28;19940;-67
2022/03/18 15:37:38;;;;;;;;;;;;;;;;;;5051351;28;19929;-68
2022/03/18 15:40:04;;;;;;;;;;;;;;;;;;5050150;28;19925;-68
2022/03/18 15:42:30;;;;;;;;;;;;;;;;;;5051152;28;19929;-67
2022/03/18 15:44:57;;;;;;;;;;;;;;;;;;5046605;28;19932;-68
2022/03/18 15:47:23;;;;;;;;;;;;;;;;;;5047008;28;19925;-67
2022/03/18 15:49:49;;;;;;;;;;;;;;;;;;5041942;28;19971;-68
2022/03/18 15:52:16;;;;;;;;;;;;;;;;;;5043986;28;19933;-68
2022/03/18 15:54:42;;;;;;;;;;;;;;;;;;5040372;28;19983;-69
2022/03/18 15:57:10;;;;;;;;;;;;;;;;;;5051433;28;19936;-67
2022/03/18 15:59:36;;;;;;;;;;;;;;;;;;5053001;28;19936;-68
2022/03/18 16:02:02;;;;;;;;;;;;;;;;;;5051855;28;19941;-68
2022/03/18 16:04:29;;;;;;;;;;;;;;;;;;5051459;28;19925;-68
2022/03/18 16:06:55;;;;;;;;;;;;;;;;;;5051186;28;19929;-67
2022/03/18 16:09:22;;;;;;;;;;;;;;;;;;5046518;28;19972;-67
2022/03/18 16:11:48;;;;;;;;;;;;;;;;;;5047302;28;19929;-67
2022/03/18 16:14:14;;;;;;;;;;;;;;;;;;5049585;28;19933;-67
2022/03/18 16:16:41;;;;;;;;;;;;;;;;;;5051848;28;19935;-67
2022/03/18 16:19:07;;;;;;;;;;;;;;;;;;5049766;28;20325;-67
2022/03/18 16:21:33;;;;;;;;;;;;;;;;;;5052152;28;20020;-67
2022/03/18 16:24:02;;;;;;;;;;;;;;;;;;5037390;28;19925;-67
2022/03/18 16:26:28;;;;;;;;;;;;;;;;;;5042664;28;19935;-67
2022/03/18 16:28:55;;;;;;;;;;;;;;;;;;5052862;28;19936;-67
2022/03/18 16:31:21;;;;;;;;;;;;;;;;;;5041034;28;19944;-67
2022/03/18 16:33:49;;;;;;;;;;;;;;;;;;5044991;28;19928;-68
2022/03/18 16:36:15;;;;;;;;;;;;;;;;;;5045028;28;21045;-67
2022/03/18 16:38:42;;;;;;;;;;;;;;;;;;5039936;28;20369;-67
2022/03/18 16:41:08;;;;;;;;;;;;;;;;;;5041195;28;19928;-67
2022/03/18 16:43:34;;;;;;;;;;;;;;;;;;5046087;28;19925;-67
2022/03/18 16:51:28;;;;;;;;;;;;;;;;;;5040488;28;19924;-68
2022/03/18 16:53:55;;;;;;;;;;;;;;;;;;5052386;28;19936;-66
2022/03/18 16:56:21;;;;;;;;;;;;;;;;;;5043622;28;19929;-67
2022/03/18 16:58:47;;;;;;;;;;;;;;;;;;5050712;28;19948;-67
2022/03/18 17:01:14;;;;;;;;;;;;;;;;;;5050769;28;19933;-67
2022/03/18 17:03:40;;;;;;;;;;;;;;;;;;5049606;28;20290;-67
2022/03/18 17:06:07;;;;;;;;;;;;;;;;;;5037497;28;19925;-66
2022/03/18 17:08:34;;;;;;;;;;;;;;;;;;5047917;28;20011;-67
2022/03/18 17:11:00;;;;;;;;;;;;;;;;;;5049232;28;19924;-68
2022/03/18 17:13:26;;;;;;;;;;;;;;;;;;5050441;28;19925;-66